Lineville, AL

2:39 PM CDT on July 30, 2014 (GMT -0500)
KALHEFLI2 Elev 928 ft | 33.55 °N, 85.65 °W | Change Station

Current weather conditions updated 2 seconds ago

Partly Cloudy
Partly Cloudy
87.4 °F
Feels Like 84 °F
N
0.0
Wind Variable Wind from North
Gusts 0.0 mph

Today is forecast to be nearly the same temperature as yesterday.

Today
High -- | Low -- °F
--% Chance of Precip.
Yesterday
High -- | Low -- °F
Precip. -- in
5:54 AM 7:43 PM
Waxing Crescent, 13% visible
Pressure 30.04 in
Visibility 10.0 miles
Clouds Few 5000 ft
Heat Index 84 °F
Dew Point 19 °F
Humidity 8%
Rainfall 0.00 in
Snow Depth Not available.
UV 11 out of 12
Pollen 3.80 out of 12
Air Quality Not available.
Flu Activity Not available.
METAR KANB 301853Z AUTO 05007KT 10SM FEW050 28/13 A3005 RMK AO2 SLP170 T02780133

More Conditions Fewer Conditions

Pressure 30.04 in
Visibility 10.0 miles
Clouds Few 5000 ft
Heat Index 84 °F
Dew Point 19 °F
Humidity 8%
Rainfall 0.00 in
Snow Depth Not available.
UV 11 out of 12
Pollen 3.80 out of 12
Air Quality Not available.
Flu Activity Not available.
METAR KANB 301853Z AUTO 05007KT 10SM FEW050 28/13 A3005 RMK AO2 SLP170 T02780133

More Conditions Fewer Conditions

10-Day Weather Forecast

Almanac

Astronomy

Jul. 30, 2014 Rise Set
Actual Time 5:54 AM CDT 7:43 PM CDT
Civil Twilight 5:27 AM CDT 8:11 PM CDT
Nautical Twilight 4:54 AM CDT 8:44 PM CDT
Astronomical Twilight 4:19 AM CDT 9:18 PM CDT
Moon 9:12 AM CDT 9:40 PM CDT
Length of Visible Light 14h 44m
Length of Day
13h 49m
Tomorrow will be 1m 31s shorter.
Waxing Crescent, 13% of the Moon is Illuminated
Today
Waxing Crescent
Aug 3
First Quarter
Aug 10
Full
Aug 17
Last Quarter
Aug 25
New

Today's Extremes

State Highs State Lows

Community

WunderPhotos

Upload Photos

1,739,166 photos uploaded!

WunderBlogs® & News

Nearby

Snow Depth

Station Depth Elevation
No new snow has been reported.

Earthquake Activity

City Distance Mag. Time & Date
No recent earthquake activity has been reported nearby.
Minimum magnitude displayed is 2.5.

Coastal Water Temperatures

Place Temperature
No Stations Reporting

Nearby Weather Stations

Station Location Temp. Heat Index Dew Point Humidity Wind Precip. Elev Updated Type
Chulafinnee, AL 87.4 °F 84 °F 19 °F 8% North  at  0.0 mph 0.00 in / hr 928 ft 2:39 PM CDT Rapid Fire
Wesson Aviation, Oxford, AL 82.6 °F 83 °F 60 °F 46% WNW  at  8.0 mph 0.00 in / hr 659 ft 2:33 PM CDT Normal
RAWS TALLADEGA AL, Talladega, AL 85 °F 83 °F 53 °F 33% NNW  at  3 mph 0.00 in / hr 600 ft 1:26 PM CDT MADIS
Coldwater, Eastaboga, AL 82.9 °F 83 °F 58 °F 43% NNE  at  1.0 mph 0.00 in / hr 623 ft 2:38 PM CDT Normal
Talladega, AL 86.0 °F 85 °F 58 °F 38% NNW  at  0.0 mph 0.00 in / hr 596 ft 2:24 PM CDT Normal
Choccolocco Community, Anniston, AL 84.2 °F 81 °F 33 °F 16% NW  at  3.6 mph 0.00 in / hr 865 ft 2:39 PM CDT Rapid Fire

Show More Stations Show Fewer Stations